createdAt,value
2018-11-28T00:00:56.726Z,-0.39
2018-11-28T00:01:57.366Z,-0.38
2018-11-28T00:02:58.151Z,-0.39
2018-11-28T00:03:58.644Z,-0.46
2018-11-28T00:04:59.322Z,-0.38
2018-11-28T00:05:59.953Z,-0.34
2018-11-28T00:07:00.654Z,-0.41
2018-11-28T00:08:01.259Z,-0.43
2018-11-28T00:09:01.978Z,-0.41
2018-11-28T00:10:02.546Z,-0.32
2018-11-28T00:11:03.225Z,-0.43
2018-11-28T00:12:03.846Z,-0.41
2018-11-28T00:13:04.476Z,-0.38
2018-11-28T00:14:05.130Z,-0.41
2018-11-28T00:15:05.820Z,-0.39
2018-11-28T00:16:06.485Z,-0.52
2018-11-28T00:17:07.088Z,-0.46
2018-11-28T00:18:07.724Z,-0.46
2018-11-28T00:19:08.320Z,-0.43
2018-11-28T00:20:09.032Z,-0.41
2018-11-28T00:21:09.674Z,-0.43
2018-11-28T00:22:10.271Z,-0.38
2018-11-28T00:23:11.000Z,-0.44
2018-11-28T00:24:13.158Z,-0.39
2018-11-28T00:25:13.844Z,-0.43
2018-11-28T00:26:14.491Z,-0.38
2018-11-28T00:27:15.173Z,-0.44
2018-11-28T00:28:15.718Z,-0.41
2018-11-28T00:29:16.447Z,-0.41
2018-11-28T00:30:17.129Z,-0.52
2018-11-28T00:31:17.704Z,-0.44
2018-11-28T00:32:18.317Z,-0.38
2018-11-28T00:33:18.942Z,-0.46
2018-11-28T00:34:19.626Z,-0.49
2018-11-28T00:35:20.239Z,-0.43
2018-11-28T00:36:20.946Z,-0.41
2018-11-28T00:37:21.606Z,-0.32
2018-11-28T00:38:22.241Z,-0.32
2018-11-28T00:39:22.866Z,-0.36
2018-11-28T00:40:23.551Z,-0.31
2018-11-28T00:41:24.105Z,-0.34
2018-11-28T00:42:24.763Z,-0.35
2018-11-28T00:43:25.505Z,-0.34
2018-11-28T00:44:26.153Z,-0.36
2018-11-28T00:45:26.781Z,-0.35
2018-11-28T00:46:27.366Z,-0.36
2018-11-28T00:47:27.987Z,-0.41
2018-11-28T00:48:28.643Z,-0.39
2018-11-28T00:49:29.304Z,-0.31
2018-11-28T00:50:29.917Z,-0.39
2018-11-28T00:51:30.576Z,-0.34
2018-11-28T00:52:31.129Z,-0.47
2018-11-28T00:53:31.827Z,-0.36
2018-11-28T00:54:32.440Z,-0.35
2018-11-28T00:55:33.160Z,-0.39
2018-11-28T00:56:33.740Z,-0.31
2018-11-28T00:57:34.418Z,-0.39
2018-11-28T00:58:34.993Z,-0.35
2018-11-28T00:59:35.702Z,-0.43
2018-11-28T01:00:36.308Z,-0.46
2018-11-28T01:01:37.030Z,-0.43
2018-11-28T01:02:37.872Z,-0.46
2018-11-28T01:03:38.231Z,-0.32
2018-11-28T01:04:38.898Z,-0.52
2018-11-28T01:05:39.536Z,-0.52
2018-11-28T01:06:40.207Z,-0.53
2018-11-28T01:07:40.833Z,-0.44
2018-11-28T01:08:41.466Z,-0.47
2018-11-28T01:09:42.120Z,-0.44
2018-11-28T01:10:42.721Z,-0.46
2018-11-28T01:11:43.350Z,-0.52
2018-11-28T01:12:43.983Z,-0.39
2018-11-28T01:13:44.649Z,-0.50
2018-11-28T01:14:45.317Z,-0.50
2018-11-28T01:15:45.931Z,-0.47
2018-11-28T01:16:46.643Z,-0.39
2018-11-28T01:17:47.231Z,-0.38
2018-11-28T01:18:47.882Z,-0.49
2018-11-28T01:19:48.625Z,-0.46
2018-11-28T01:20:49.189Z,-0.44
2018-11-28T01:21:49.861Z,-0.52
2018-11-28T01:22:50.479Z,-0.43
2018-11-28T01:23:51.102Z,-0.44
2018-11-28T01:24:51.754Z,-0.50
2018-11-28T01:25:52.377Z,-0.43
2018-11-28T01:26:53.141Z,-0.53
2018-11-28T01:27:53.721Z,-0.39
2018-11-28T01:28:54.391Z,-0.44
2018-11-28T01:29:55.025Z,-0.46
2018-11-28T01:30:55.635Z,-0.41
2018-11-28T01:31:56.277Z,-0.49
2018-11-28T01:32:56.969Z,-0.44
2018-11-28T01:33:57.640Z,-0.44
2018-11-28T01:34:58.254Z,-0.43
2018-11-28T01:35:58.959Z,-0.43
2018-11-28T01:36:59.550Z,-0.43
2018-11-28T01:38:00.225Z,-0.47
2018-11-28T01:39:00.809Z,-0.39
2018-11-28T01:40:01.448Z,-0.43
2018-11-28T01:41:02.106Z,-0.50
2018-11-28T01:42:02.774Z,-0.39
2018-11-28T01:43:03.418Z,-0.38
2018-11-28T01:44:04.057Z,-0.47
2018-11-28T01:45:04.685Z,-0.52
2018-11-28T01:46:05.422Z,-0.47
2018-11-28T01:47:05.975Z,-0.46
2018-11-28T01:48:06.618Z,-0.43
2018-11-28T01:49:07.250Z,-0.38
2018-11-28T01:50:07.957Z,-0.44
2018-11-28T01:51:08.590Z,-0.43
2018-11-28T01:52:09.193Z,-0.50
2018-11-28T01:53:09.868Z,-0.57
2018-11-28T01:54:10.478Z,-0.57
2018-11-28T01:55:11.158Z,-0.53
2018-11-28T01:56:11.806Z,-0.50
2018-11-28T01:57:12.483Z,-0.59
2018-11-28T01:58:13.066Z,-0.53
2018-11-28T01:59:13.750Z,-0.64
2018-11-28T02:00:14.542Z,-0.53
2018-11-28T02:01:15.022Z,-0.57
2018-11-28T02:02:15.674Z,-0.56
2018-11-28T02:03:16.331Z,-0.50
2018-11-28T02:04:16.985Z,-0.50
2018-11-28T02:05:17.606Z,-0.49
2018-11-28T02:06:18.317Z,-0.53
2018-11-28T02:07:18.890Z,-0.56
2018-11-28T02:08:19.499Z,-0.56
2018-11-28T02:09:20.218Z,-0.56
2018-11-28T02:10:20.858Z,-0.53
2018-11-28T02:11:21.534Z,-0.53
2018-11-28T02:12:22.072Z,-0.56
2018-11-28T02:13:22.791Z,-0.49
2018-11-28T02:14:23.470Z,-0.46
2018-11-28T02:15:24.013Z,-0.49
2018-11-28T02:16:24.646Z,-0.52
2018-11-28T02:17:25.357Z,-0.50
2018-11-28T02:18:25.959Z,-0.57
2018-11-28T02:19:26.608Z,-0.46
2018-11-28T02:20:27.223Z,-0.50
2018-11-28T02:21:27.926Z,-0.52
2018-11-28T02:22:30.190Z,-0.38
2018-11-28T02:23:30.912Z,-0.41
2018-11-28T02:24:31.443Z,-0.44
2018-11-28T02:25:32.164Z,-0.44
2018-11-28T02:26:32.747Z,-0.46
2018-11-28T02:27:35.195Z,-0.46
2018-11-28T02:28:35.866Z,-0.52
2018-11-28T02:29:36.425Z,-0.41
2018-11-28T02:30:37.083Z,-0.39
2018-11-28T02:31:37.806Z,-0.39
2018-11-28T02:32:38.364Z,-0.43
2018-11-28T02:33:39.061Z,-0.39
2018-11-28T02:34:39.723Z,-0.32
2018-11-28T02:35:40.374Z,-0.39
2018-11-28T02:36:41.134Z,-0.41
2018-11-28T02:37:41.693Z,-0.38
2018-11-28T02:38:42.320Z,-0.23
2018-11-28T02:39:43.097Z,-0.29
2018-11-28T02:40:43.632Z,-0.26
2018-11-28T02:41:44.252Z,-0.23
2018-11-28T02:42:44.894Z,-0.20
2018-11-28T02:43:45.612Z,-0.23
2018-11-28T02:44:46.197Z,-0.23
2018-11-28T02:45:46.957Z,-0.17
2018-11-28T02:46:47.547Z,-0.15
2018-11-28T02:47:48.130Z,-0.20
2018-11-28T02:48:48.852Z,-0.17
2018-11-28T02:49:49.455Z,-0.14
2018-11-28T02:50:50.069Z,-0.18
2018-11-28T02:51:50.714Z,-0.08
2018-11-28T02:52:51.416Z,-0.11
2018-11-28T02:53:52.058Z,-0.13
2018-11-28T02:54:52.653Z,-0.10
2018-11-28T02:55:53.346Z,-0.17
2018-11-28T02:56:53.945Z,-0.14
2018-11-28T02:57:54.664Z,-0.10
2018-11-28T02:58:55.291Z,-0.18
2018-11-28T02:59:55.979Z,-0.03
2018-11-28T03:00:56.556Z,-0.03
2018-11-28T03:01:57.224Z,-0.06
2018-11-28T03:02:57.858Z,0.03
2018-11-28T03:03:58.487Z,0.00
2018-11-28T03:04:59.180Z,0.04
2018-11-28T03:05:59.827Z,0.01
2018-11-28T03:07:00.473Z,0.05
2018-11-28T03:08:01.045Z,0.03
2018-11-28T03:09:01.711Z,0.08
2018-11-28T03:10:02.339Z,0.11
2018-11-28T03:11:03.039Z,0.03
2018-11-28T03:12:03.678Z,0.10
2018-11-28T03:13:04.346Z,0.10
2018-11-28T03:14:04.928Z,0.11
2018-11-28T03:15:05.600Z,0.16
2018-11-28T03:16:06.280Z,0.28
2018-11-28T03:17:06.867Z,0.23
2018-11-28T03:18:07.553Z,0.18
2018-11-28T03:19:08.235Z,0.16
2018-11-28T03:20:08.834Z,0.12
2018-11-28T03:21:09.513Z,0.08
2018-11-28T03:22:10.133Z,0.15
2018-11-28T03:23:10.766Z,0.08
2018-11-28T03:24:11.437Z,0.22
2018-11-28T03:25:12.074Z,0.10
2018-11-28T03:26:12.686Z,0.10
2018-11-28T03:27:13.407Z,0.05
2018-11-28T03:28:14.017Z,0.07
2018-11-28T03:29:14.722Z,0.07
2018-11-28T03:30:15.309Z,0.10
2018-11-28T03:31:15.933Z,0.11
2018-11-28T03:32:16.651Z,0.15
2018-11-28T03:33:17.221Z,0.15
2018-11-28T03:34:17.937Z,0.15
2018-11-28T03:35:18.532Z,0.18
2018-11-28T03:36:19.178Z,0.05
2018-11-28T03:37:19.879Z,0.07
2018-11-28T03:38:20.492Z,0.00
2018-11-28T03:39:21.157Z,0.01
2018-11-28T03:40:21.803Z,0.04
2018-11-28T03:41:22.405Z,0.01
2018-11-28T03:42:22.988Z,-0.03
2018-11-28T03:43:23.638Z,0.07
2018-11-28T03:44:24.301Z,0.00
2018-11-28T03:45:24.974Z,-0.02
2018-11-28T03:46:25.594Z,0.01
2018-11-28T03:47:26.238Z,0.03
2018-11-28T03:48:26.908Z,0.01
2018-11-28T03:49:27.544Z,0.04
2018-11-28T03:50:28.216Z,0.04
2018-11-28T03:51:28.862Z,0.04
2018-11-28T03:52:29.473Z,0.08
2018-11-28T03:53:31.459Z,0.01
2018-11-28T03:54:39.075Z,0.00
2018-11-28T03:55:39.850Z,0.04
2018-11-28T03:56:45.404Z,0.05
2018-11-28T03:57:52.977Z,0.00
2018-11-28T03:59:30.217Z,0.07
2018-11-28T04:09:02.351Z,0.10
2018-11-28T04:09:57.815Z,0.11
2018-11-28T04:10:56.806Z,0.10
2018-11-28T04:11:59.382Z,0.15
2018-11-28T04:12:58.847Z,0.12
2018-11-28T04:14:00.508Z,0.08
2018-11-28T04:14:58.896Z,0.12
2018-11-28T04:15:59.123Z,0.12
2018-11-28T04:16:59.799Z,0.05
2018-11-28T04:18:00.519Z,0.21
2018-11-28T04:19:01.302Z,0.18
2018-11-28T04:20:01.977Z,0.19
2018-11-28T04:21:02.779Z,0.18
2018-11-28T04:22:03.715Z,0.15
2018-11-28T04:23:05.814Z,0.10
2018-11-28T04:26:17.374Z,0.22
2018-11-28T04:27:10.510Z,0.15
2018-11-28T04:31:55.207Z,0.22
2018-11-28T04:38:00.996Z,0.25
2018-11-28T04:47:00.299Z,0.50
2018-11-28T04:51:01.725Z,0.39
2018-11-28T04:54:58.378Z,0.29
2018-11-28T04:55:59.961Z,0.28
2018-11-28T04:56:59.861Z,0.34
2018-11-28T04:58:01.268Z,0.41
2018-11-28T04:59:00.083Z,0.43
2018-11-28T05:01:17.763Z,0.41
2018-11-28T05:02:02.874Z,0.46
2018-11-28T05:03:03.478Z,0.43
2018-11-28T05:04:04.208Z,0.40
2018-11-28T05:05:04.880Z,0.47
2018-11-28T05:06:05.756Z,0.46
2018-11-28T05:07:06.456Z,0.41
2018-11-28T05:08:07.098Z,0.59
2018-11-28T05:09:07.806Z,0.47
2018-11-28T05:10:08.755Z,0.49
2018-11-28T05:11:09.586Z,0.49
2018-11-28T05:12:10.572Z,0.41
2018-11-28T05:13:11.318Z,0.44
2018-11-28T05:14:12.384Z,0.49
2018-11-28T05:15:13.273Z,0.46
2018-11-28T05:16:13.944Z,0.49
2018-11-28T05:17:14.715Z,0.47
2018-11-28T05:18:15.490Z,0.47
2018-11-28T05:19:16.408Z,0.47
2018-11-28T05:20:17.135Z,0.44
2018-11-28T05:21:17.886Z,0.44
2018-11-28T05:22:18.688Z,0.56
2018-11-28T05:23:19.632Z,0.60
2018-11-28T05:24:20.434Z,0.58
2018-11-28T05:25:21.274Z,0.55
2018-11-28T05:26:22.120Z,0.58
2018-11-28T05:27:22.897Z,0.46
2018-11-28T05:28:23.542Z,0.50
2018-11-28T05:29:24.472Z,0.55
2018-11-28T05:30:26.105Z,0.52
2018-11-28T05:31:28.783Z,0.55
2018-11-28T05:32:30.255Z,0.46
2018-11-28T05:33:31.034Z,0.63
2018-11-28T05:34:31.889Z,0.62
2018-11-28T05:35:32.585Z,0.59
2018-11-28T05:36:33.617Z,0.46
2018-11-28T05:37:34.345Z,0.56
2018-11-28T05:38:35.478Z,0.52
2018-11-28T05:39:36.222Z,0.52
2018-11-28T05:40:37.083Z,0.52
2018-11-28T05:41:37.755Z,0.43
2018-11-28T05:42:38.571Z,0.56
2018-11-28T05:43:39.234Z,0.46
2018-11-28T05:44:40.330Z,0.50
2018-11-28T05:45:41.152Z,0.52
2018-11-28T05:46:42.229Z,0.56
2018-11-28T05:47:43.128Z,0.47
2018-11-28T05:48:44.339Z,0.62
2018-11-28T05:49:45.126Z,0.59
2018-11-28T05:50:45.969Z,0.63
2018-11-28T05:51:46.828Z,0.59
2018-11-28T05:52:47.569Z,0.59
2018-11-28T05:53:48.490Z,0.76
2018-11-28T05:54:49.331Z,0.76
2018-11-28T05:55:50.072Z,0.74
2018-11-28T05:56:50.756Z,0.76
2018-11-28T05:57:51.602Z,0.76
2018-11-28T05:58:52.453Z,0.84
2018-11-28T05:59:53.143Z,0.86
2018-11-28T06:00:53.953Z,0.77
2018-11-28T06:01:54.677Z,0.80
2018-11-28T06:02:55.404Z,0.76
2018-11-28T06:03:56.147Z,0.78
2018-11-28T06:04:57.076Z,0.83
2018-11-28T06:05:58.083Z,0.78
2018-11-28T06:06:58.846Z,0.84
2018-11-28T06:07:59.542Z,0.78
2018-11-28T06:09:00.573Z,0.81
2018-11-28T06:10:01.306Z,0.84
2018-11-28T06:11:02.014Z,0.83
2018-11-28T06:12:02.771Z,0.83
2018-11-28T06:13:03.571Z,0.81
2018-11-28T06:14:04.548Z,0.83
2018-11-28T06:15:05.320Z,0.83
2018-11-28T06:16:06.043Z,0.83
2018-11-28T06:17:06.778Z,0.81
2018-11-28T06:18:08.211Z,0.80
2018-11-28T06:19:08.942Z,0.78
2018-11-28T06:20:09.735Z,0.81
2018-11-28T06:21:10.377Z,0.83
2018-11-28T06:22:11.042Z,0.80
2018-11-28T06:23:11.860Z,0.78
2018-11-28T06:24:12.663Z,0.81
2018-11-28T06:25:16.336Z,0.73
2018-11-28T06:26:14.101Z,0.73
2018-11-28T06:27:14.823Z,0.76
2018-11-28T06:28:15.650Z,0.73
2018-11-28T06:29:16.375Z,0.66
2018-11-28T06:30:17.165Z,0.76
2018-11-28T06:31:18.043Z,0.73
2018-11-28T06:32:18.959Z,0.74
2018-11-28T06:33:19.584Z,0.81
2018-11-28T06:34:20.277Z,0.77
2018-11-28T06:35:21.542Z,0.80
2018-11-28T17:09:52.044Z,7.32
2018-11-28T17:10:54.024Z,7.36
2018-11-28T17:11:54.689Z,7.29
2018-11-28T17:12:56.822Z,7.23
2018-11-28T17:13:55.984Z,7.17
2018-11-28T17:14:57.847Z,7.17
2018-11-28T17:17:16.997Z,7.14
2018-11-28T17:18:09.274Z,7.10
2018-11-28T17:19:09.846Z,6.96
2018-11-28T17:20:10.325Z,7.18
2018-11-28T17:21:10.974Z,7.03
2018-11-28T17:22:11.535Z,6.97
2018-11-28T17:23:12.156Z,6.93
2018-11-28T17:24:12.821Z,6.96
2018-11-28T17:25:13.325Z,6.93
2018-11-28T17:26:13.975Z,6.81
2018-11-28T17:27:14.545Z,6.81
2018-11-28T17:28:15.123Z,6.77
2018-11-28T17:29:15.732Z,6.72
2018-11-28T17:30:18.749Z,6.72
2018-11-28T17:31:16.911Z,6.74
2018-11-28T17:32:17.582Z,6.64
2018-11-28T17:33:18.158Z,6.72
2018-11-28T17:34:18.681Z,6.67
2018-11-28T17:35:19.282Z,6.63
2018-11-28T17:36:19.835Z,6.67
2018-11-28T17:37:20.568Z,6.63
2018-11-28T17:38:21.118Z,6.56
2018-11-28T17:39:21.639Z,6.74
2018-11-28T17:40:22.306Z,6.69
2018-11-28T17:41:22.866Z,6.77
2018-11-28T17:42:23.547Z,6.69
2018-11-28T17:43:24.019Z,6.57
2018-11-28T17:44:24.623Z,6.56
2018-11-28T17:45:25.196Z,6.57
2018-11-28T17:46:25.804Z,6.57
2018-11-28T17:47:26.479Z,6.52
2018-11-28T17:48:28.081Z,6.60
2018-11-28T17:49:28.606Z,6.60
2018-11-28T17:50:29.253Z,6.62
2018-11-28T17:51:29.819Z,6.57
2018-11-28T17:52:30.387Z,6.69
2018-11-28T17:53:30.969Z,6.72
2018-11-28T17:54:31.653Z,6.72
2018-11-28T17:55:32.126Z,6.64
2018-11-28T17:56:32.725Z,6.60
2018-11-28T17:57:33.422Z,6.72
2018-11-28T17:58:33.963Z,6.59
2018-11-28T17:59:34.510Z,6.66
2018-11-28T18:00:35.179Z,6.66
2018-11-28T18:01:35.678Z,6.67
2018-11-28T18:02:37.991Z,6.67
2018-11-28T18:03:38.680Z,6.72
2018-11-28T18:04:39.225Z,6.70
2018-11-28T18:05:39.856Z,6.69
2018-11-28T18:06:40.361Z,6.72
2018-11-28T18:07:41.059Z,6.74
2018-11-28T18:08:41.624Z,6.75
2018-11-28T18:09:42.178Z,6.66
2018-11-28T18:10:42.822Z,6.72
2018-11-28T18:11:43.352Z,6.69
2018-11-28T18:12:44.559Z,6.81
2018-11-28T18:13:45.087Z,6.75
2018-11-28T18:14:45.724Z,6.72
2018-11-28T18:15:46.274Z,6.69
2018-11-28T18:16:46.870Z,6.88
2018-11-28T18:17:47.535Z,6.87
2018-11-28T18:18:48.094Z,6.92
2018-11-28T18:19:48.623Z,6.84
2018-11-28T18:20:50.338Z,6.78
2018-11-28T18:21:50.341Z,6.75
2018-11-28T18:22:50.510Z,6.88
2018-11-28T18:23:51.024Z,6.89
2018-11-28T18:24:51.664Z,6.96
2018-11-28T18:25:52.340Z,6.92
2018-11-28T18:26:52.772Z,6.88
2018-11-28T18:27:53.417Z,6.87
2018-11-28T18:28:53.936Z,6.95
2018-11-28T18:29:54.706Z,6.92
2018-11-28T18:30:56.094Z,6.87
2018-11-28T18:31:56.698Z,6.77
2018-11-28T18:32:57.141Z,6.78
2018-11-28T18:33:57.748Z,6.72
2018-11-28T18:34:58.612Z,6.81
2018-11-28T18:35:59.019Z,6.70
2018-11-28T18:36:59.534Z,6.75
2018-11-28T18:38:00.340Z,6.81
2018-11-28T18:39:00.855Z,6.81
2018-11-28T18:40:01.384Z,6.85
2018-11-28T18:41:01.878Z,6.81
2018-11-28T18:42:02.507Z,6.81
2018-11-28T18:43:03.132Z,6.74
2018-11-28T18:44:03.717Z,6.72
2018-11-28T18:45:06.021Z,6.70
2018-11-28T18:46:06.651Z,6.66
2018-11-28T18:47:07.276Z,6.75
2018-11-28T18:48:07.805Z,6.72
2018-11-28T18:49:08.340Z,6.70
2018-11-28T18:50:09.068Z,6.74
2018-11-28T18:51:09.522Z,6.79
2018-11-28T18:52:10.170Z,6.77
2018-11-28T18:53:10.779Z,6.81
2018-11-28T18:54:11.381Z,6.74
2018-11-28T18:55:16.513Z,6.75
2018-11-28T18:56:12.514Z,6.67
2018-11-28T18:57:13.046Z,6.64
2018-11-28T18:58:13.705Z,6.67
2018-11-28T18:59:14.278Z,6.60
2018-11-28T19:00:14.924Z,6.57
2018-11-28T19:01:15.725Z,6.77
2018-11-28T19:02:16.417Z,6.60
2018-11-28T19:03:16.843Z,6.59
2018-11-28T19:04:17.399Z,6.57
2018-11-28T19:05:18.027Z,6.49
2018-11-28T19:06:20.563Z,6.48
2018-11-28T19:07:21.193Z,6.49
2018-11-28T19:08:21.717Z,6.42
2018-11-28T19:09:22.346Z,6.45
2018-11-28T19:10:26.267Z,6.52
2018-11-28T19:11:23.710Z,6.46
2018-11-28T19:12:24.079Z,6.54
2018-11-28T19:13:24.692Z,6.44
2018-11-28T19:14:26.029Z,6.48
2018-11-28T19:15:26.632Z,6.48
2018-11-28T19:16:27.192Z,6.45
2018-11-28T19:17:27.737Z,6.39
2018-11-28T19:18:28.366Z,6.36
2018-11-28T19:19:28.963Z,6.35
2018-11-28T19:20:29.587Z,6.41
2018-11-28T19:21:30.179Z,6.57
2018-11-28T19:22:30.866Z,6.42
2018-11-28T19:23:31.420Z,6.54
2018-11-28T19:24:32.065Z,6.51
2018-11-28T19:25:32.561Z,6.59
2018-11-28T19:26:33.187Z,6.59
2018-11-28T19:27:33.763Z,6.54
2018-11-28T19:28:34.376Z,6.59
2018-11-28T19:29:34.967Z,6.54
2018-11-28T19:30:35.568Z,6.54
2018-11-28T19:31:36.179Z,6.54
2018-11-28T19:32:36.724Z,6.51
2018-11-28T19:33:37.328Z,6.49
2018-11-28T19:34:37.949Z,6.46
2018-11-28T19:35:38.606Z,6.46
2018-11-28T19:36:39.201Z,6.48
2018-11-28T19:37:39.721Z,6.46
2018-11-28T19:38:40.403Z,6.35
2018-11-28T19:39:40.944Z,6.41
2018-11-28T19:40:41.537Z,6.33
2018-11-28T19:41:44.119Z,6.48
2018-11-28T19:42:44.677Z,6.46
2018-11-28T19:43:45.343Z,6.54
2018-11-28T19:44:45.854Z,6.45
2018-11-28T19:45:46.421Z,6.38
2018-11-28T19:46:47.168Z,6.36
2018-11-28T19:47:47.661Z,6.45
2018-11-28T19:48:48.202Z,6.48
2018-11-28T19:49:48.994Z,6.44
2018-11-28T19:50:49.380Z,6.41
2018-11-28T19:51:50.041Z,6.38
2018-11-28T19:52:50.661Z,6.38
2018-11-28T19:53:53.236Z,6.49
2018-11-28T19:54:53.748Z,6.52
2018-11-28T19:55:54.392Z,6.46
2018-11-28T19:56:54.950Z,6.54
2018-11-28T19:57:55.454Z,6.59
2018-11-28T19:58:56.042Z,6.57
2018-11-28T19:59:56.612Z,6.48
2018-11-28T20:00:57.233Z,6.64
2018-11-28T20:01:57.882Z,6.66
2018-11-28T20:02:58.479Z,6.59
2018-11-28T20:03:59.687Z,6.59
2018-11-28T20:05:00.231Z,6.62
2018-11-28T20:06:00.885Z,6.63
2018-11-28T20:07:01.356Z,6.59
2018-11-28T20:08:01.917Z,6.60
2018-11-28T20:09:02.467Z,6.62
2018-11-28T20:10:03.047Z,6.57
2018-11-28T20:11:03.666Z,6.56
2018-11-28T20:12:04.263Z,6.51
2018-11-28T20:13:04.916Z,6.54
2018-11-28T20:14:05.484Z,6.52
2018-11-28T20:15:06.120Z,6.56
2018-11-28T20:16:07.659Z,6.62
2018-11-28T20:17:08.165Z,6.59
2018-11-28T20:18:08.768Z,6.56
2018-11-28T20:19:11.115Z,6.56
2018-11-28T20:20:11.582Z,6.54
2018-11-28T20:22:12.863Z,6.60
2018-11-28T20:23:13.474Z,6.57
2018-11-28T20:24:13.999Z,6.64
2018-11-28T20:25:14.713Z,6.72
2018-11-28T20:26:15.402Z,6.72
2018-11-28T20:27:15.958Z,6.66
2018-11-28T20:28:16.997Z,6.72
2018-11-28T20:29:17.636Z,6.69
2018-11-28T20:30:19.081Z,6.69
2018-11-28T20:31:19.662Z,6.69
2018-11-28T20:32:20.262Z,6.67
2018-11-28T20:33:20.803Z,6.69
2018-11-28T20:34:21.429Z,6.70
2018-11-28T20:35:22.214Z,6.72
2018-11-28T20:36:22.606Z,6.66
2018-11-28T20:37:23.243Z,6.70
2018-11-28T20:38:24.630Z,6.72
2018-11-28T20:39:25.105Z,6.75
2018-11-28T20:40:25.718Z,6.69
2018-11-28T20:41:26.304Z,6.72
2018-11-28T20:42:26.945Z,6.67
2018-11-28T20:43:27.630Z,6.75
2018-11-28T20:44:28.258Z,6.72
2018-11-28T20:45:28.838Z,6.82
2018-11-28T20:46:29.307Z,6.78
2018-11-28T20:47:31.595Z,6.87
2018-11-28T20:48:32.288Z,6.78
2018-11-28T20:49:32.961Z,6.88
2018-11-28T20:50:33.384Z,6.85
2018-11-28T20:51:34.533Z,6.78
2018-11-28T20:52:36.100Z,6.74
2018-11-28T20:53:36.776Z,6.81
2018-11-28T20:54:37.253Z,6.78
2018-11-28T20:55:39.516Z,6.88
2018-11-28T20:56:40.194Z,6.87
2018-11-28T20:57:40.832Z,6.87
2018-11-28T20:58:41.353Z,6.88
2018-11-28T20:59:42.137Z,6.84
2018-11-28T21:00:42.472Z,6.77
2018-11-28T21:01:43.070Z,6.84
2018-11-28T21:02:43.811Z,6.82
2018-11-28T21:03:45.173Z,6.82
2018-11-28T21:04:45.650Z,6.96
2018-11-28T21:05:47.347Z,6.99
2018-11-28T21:06:48.624Z,7.02
2018-11-28T21:07:49.219Z,6.93
2018-11-28T21:08:51.679Z,6.95
2018-11-28T21:09:52.205Z,6.92
2018-11-28T21:10:52.785Z,7.06
2018-11-28T21:11:53.605Z,6.97
2018-11-28T21:12:54.081Z,7.00
2018-11-28T21:13:54.609Z,7.03
2018-11-28T21:14:55.071Z,6.99
2018-11-28T21:15:55.871Z,7.02
2018-11-28T21:17:01.134Z,6.96
2018-11-28T21:18:01.772Z,6.93
2018-11-28T21:19:02.315Z,6.92
2018-11-28T21:20:02.885Z,6.95
2018-11-28T21:21:03.538Z,6.99
2018-11-28T21:22:04.015Z,6.95
2018-11-28T21:23:04.678Z,7.02
2018-11-28T21:24:05.255Z,7.03
2018-11-28T21:25:05.853Z,7.25
2018-11-28T21:26:06.603Z,7.33
2018-11-28T21:27:07.182Z,7.18
2018-11-28T21:28:07.670Z,7.17
2018-11-28T21:29:08.180Z,7.17
2018-11-28T21:30:08.887Z,7.17
2018-11-28T21:31:09.286Z,7.13
2018-11-28T21:32:10.604Z,7.17
2018-11-28T21:33:11.483Z,7.21
2018-11-28T21:34:12.376Z,7.14
2018-11-28T21:35:14.234Z,7.35
2018-11-28T21:36:14.749Z,7.29
2018-11-28T21:37:15.403Z,7.20
2018-11-28T21:38:16.638Z,7.24
2018-11-28T21:39:17.268Z,7.32
2018-11-28T21:40:19.568Z,7.33
2018-11-28T21:41:20.245Z,7.32
2018-11-28T21:42:20.907Z,7.31
2018-11-28T21:43:22.339Z,7.35
2018-11-28T21:44:23.600Z,7.32
2018-11-28T21:45:25.194Z,7.40
2018-11-28T21:46:25.640Z,7.40
2018-11-28T21:47:26.287Z,7.42
2018-11-28T21:48:26.837Z,7.35
2018-11-28T21:49:27.539Z,7.35
2018-11-28T21:50:28.274Z,7.42
2018-11-28T21:51:28.697Z,7.32
2018-11-28T21:52:29.329Z,7.43
2018-11-28T21:53:30.662Z,7.40
2018-11-28T21:54:31.297Z,7.48
2018-11-28T21:55:31.978Z,7.56
2018-11-28T21:56:32.350Z,7.47
2018-11-28T21:57:33.145Z,7.56
2018-11-28T21:58:33.649Z,7.48
2018-11-28T21:59:34.276Z,7.54
2018-11-28T22:00:34.807Z,7.42
2018-11-28T22:01:35.389Z,7.45
2018-11-28T22:02:36.661Z,7.61
2018-11-28T22:03:37.223Z,7.57
2018-11-28T22:04:37.777Z,7.56
2018-11-28T22:05:38.389Z,7.56
2018-11-28T22:06:39.680Z,7.53
2018-11-28T22:07:42.113Z,7.57
2018-11-28T22:08:42.734Z,7.63
2018-11-28T22:09:44.121Z,7.67
2018-11-28T22:10:47.730Z,7.63
2018-11-28T22:11:48.118Z,7.60
2018-11-28T22:12:50.605Z,7.60
2018-11-28T22:13:51.352Z,7.63
2018-11-28T22:14:51.852Z,7.67
2018-11-28T22:15:54.209Z,7.58
2018-11-28T22:16:56.740Z,7.61
2018-11-28T22:17:57.379Z,7.73
2018-11-28T22:18:57.900Z,7.66
2018-11-28T22:19:58.610Z,7.67
2018-11-28T22:20:59.265Z,7.69
2018-11-28T22:21:59.887Z,7.72
2018-11-28T22:23:00.392Z,7.67
2018-11-28T22:24:00.948Z,7.69
2018-11-28T22:25:02.128Z,7.69
2018-11-28T22:26:03.559Z,7.69
2018-11-28T22:27:04.349Z,7.73
2018-11-28T22:28:04.941Z,7.70
2018-11-28T22:29:05.291Z,7.76
2018-11-28T22:30:06.615Z,7.79
2018-11-28T22:31:07.398Z,7.80
2018-11-28T22:32:07.780Z,7.72
2018-11-28T22:33:08.539Z,7.85
2018-11-28T22:34:09.092Z,7.93
2018-11-28T22:35:09.697Z,7.87
2018-11-28T22:36:10.191Z,8.01
2018-11-28T22:37:11.021Z,8.05
2018-11-28T22:38:13.267Z,7.87
2018-11-28T22:39:13.961Z,8.03
2018-11-28T22:40:15.632Z,8.15
2018-11-28T22:41:15.706Z,8.09
2018-11-28T22:42:16.507Z,8.05
2018-11-28T22:43:16.979Z,8.00
2018-11-28T22:44:17.568Z,7.98
2018-11-28T22:45:18.140Z,7.87
2018-11-28T22:46:18.659Z,7.88
2018-11-28T22:47:19.473Z,7.94
2018-11-28T22:48:20.584Z,7.87
2018-11-28T22:49:21.232Z,7.91
2018-11-28T22:50:21.751Z,7.95
2018-11-28T22:51:22.351Z,7.95
2018-11-28T22:52:23.062Z,7.95
2018-11-28T22:53:23.743Z,7.97
2018-11-28T22:54:25.342Z,7.97
2018-11-28T22:55:25.592Z,8.00
2018-11-28T22:56:26.209Z,7.94
2018-11-28T22:57:27.114Z,7.98
2018-11-28T22:58:27.569Z,7.97
2018-11-28T22:59:28.604Z,8.09
2018-11-28T23:00:29.150Z,8.09
2018-11-28T23:01:29.710Z,8.12
2018-11-28T23:02:30.354Z,8.13
2018-11-28T23:03:31.037Z,8.09
2018-11-28T23:04:31.551Z,8.12
2018-11-28T23:05:32.438Z,8.20
2018-11-28T23:06:33.003Z,8.08
2018-11-28T23:07:33.268Z,8.19
2018-11-28T23:08:34.761Z,8.18
2018-11-28T23:09:37.212Z,8.09
2018-11-28T23:10:37.873Z,8.16
2018-11-28T23:11:38.359Z,8.16
2018-11-28T23:12:39.020Z,8.23
2018-11-28T23:13:40.121Z,8.09
2018-11-28T23:14:40.650Z,8.23
2018-11-28T23:15:41.486Z,8.13
2018-11-28T23:16:41.921Z,8.16
2018-11-28T23:17:45.085Z,8.18
2018-11-28T23:18:45.752Z,8.24
2018-11-28T23:19:46.527Z,8.18
2018-11-28T23:20:46.933Z,8.23
2018-11-28T23:21:50.059Z,8.20
2018-11-28T23:22:48.685Z,8.26
2018-11-28T23:23:49.210Z,8.10
2018-11-28T23:24:50.044Z,8.13
2018-11-28T23:25:53.254Z,8.19
2018-11-28T23:26:53.753Z,8.18
2018-11-28T23:27:55.371Z,8.15
2018-11-28T23:28:56.628Z,8.27
2018-11-28T23:29:57.281Z,8.34
2018-11-28T23:30:57.739Z,8.24
2018-11-28T23:31:58.388Z,8.27
2018-11-28T23:32:59.034Z,8.28
2018-11-28T23:33:59.598Z,8.28
2018-11-28T23:35:00.302Z,8.27
2018-11-28T23:36:00.793Z,8.36
2018-11-28T23:37:01.393Z,8.30
2018-11-28T23:38:01.939Z,8.28
2018-11-28T23:39:02.608Z,8.28
2018-11-28T23:40:03.240Z,8.19
2018-11-28T23:41:03.909Z,8.26
2018-11-28T23:42:04.298Z,8.42
2018-11-28T23:43:04.975Z,8.27
2018-11-28T23:44:06.072Z,8.44
2018-11-28T23:45:06.608Z,8.34
2018-11-28T23:46:07.543Z,8.33
2018-11-28T23:47:07.800Z,8.31
2018-11-28T23:48:08.650Z,8.44
2018-11-28T23:49:09.199Z,8.38
2018-11-28T23:50:10.573Z,8.37
2018-11-28T23:51:12.204Z,8.55
2018-11-28T23:52:12.637Z,8.44
2018-11-28T23:53:14.175Z,8.44
2018-11-28T23:54:14.729Z,8.41
2018-11-28T23:55:15.525Z,8.41
2018-11-28T23:56:15.889Z,8.37
2018-11-28T23:57:18.273Z,8.45
2018-11-28T23:58:18.659Z,8.52
2018-11-28T23:59:19.271Z,8.53
